createdAt,value
2023-10-09T00:00:00.216Z, 0
2023-10-09T00:02:00.297Z, 0
2023-10-09T00:04:00.276Z, 0
2023-10-09T00:06:00.205Z, 0
2023-10-09T00:08:00.148Z, 0
2023-10-09T00:10:00.126Z, 0
2023-10-09T00:12:00.158Z, 0
2023-10-09T00:14:00.105Z, 0
2023-10-09T00:16:00.124Z, 0
2023-10-09T00:18:00.269Z, 0
2023-10-09T00:20:00.199Z, 0
2023-10-09T00:22:00.114Z, 0
2023-10-09T00:24:00.146Z, 0
2023-10-09T00:26:00.102Z, 0
2023-10-09T00:28:00.109Z, 0
2023-10-09T00:30:00.222Z, 0
2023-10-09T00:32:00.105Z, 0
2023-10-09T00:34:00.136Z, 0
2023-10-09T00:36:00.170Z, 0
2023-10-09T00:38:00.109Z, 0
2023-10-09T00:40:00.093Z, 0
2023-10-09T00:42:00.249Z, 0
2023-10-09T00:44:00.665Z, 0
2023-10-09T00:46:00.128Z, 0
2023-10-09T00:48:00.399Z, 0
2023-10-09T00:50:00.140Z, 0
2023-10-09T00:52:00.121Z, 0
2023-10-09T00:54:00.151Z, 0
2023-10-09T00:56:00.087Z, 0
2023-10-09T00:58:00.088Z, 0
2023-10-09T01:00:00.207Z, 0
2023-10-09T01:02:00.164Z, 0
2023-10-09T01:04:00.203Z, 0
2023-10-09T01:06:00.223Z, 0
2023-10-09T01:08:00.100Z, 0
2023-10-09T01:10:00.116Z, 0
2023-10-09T01:12:00.226Z, 0
2023-10-09T01:14:00.079Z, 0
2023-10-09T01:16:00.109Z, 0
2023-10-09T01:18:00.302Z, 0
2023-10-09T01:20:00.207Z, 0
2023-10-09T01:22:00.077Z, 0
2023-10-09T01:24:00.307Z, 0
2023-10-09T01:26:00.167Z, 0
2023-10-09T01:28:00.141Z, 0
2023-10-09T01:30:00.258Z, 0
2023-10-09T01:32:00.109Z, 0
2023-10-09T01:34:00.204Z, 0
2023-10-09T01:36:00.141Z, 0
2023-10-09T01:38:00.124Z, 0
2023-10-09T01:40:00.111Z, 0
2023-10-09T01:42:00.257Z, 0
2023-10-09T01:44:00.104Z, 0
2023-10-09T01:46:00.169Z, 0
2023-10-09T01:48:00.312Z, 0
2023-10-09T01:50:00.196Z, 0
2023-10-09T01:52:00.077Z, 0
2023-10-09T01:54:00.164Z, 0
2023-10-09T01:56:00.103Z, 0
2023-10-09T01:58:00.243Z, 0
2023-10-09T02:00:00.334Z, 0
2023-10-09T02:02:00.108Z, 0
2023-10-09T02:04:00.185Z, 0
2023-10-09T02:06:00.171Z, 0
2023-10-09T02:08:00.128Z, 0
2023-10-09T02:10:00.143Z, 0
2023-10-09T02:12:00.136Z, 0
2023-10-09T02:14:00.098Z, 0
2023-10-09T02:16:00.253Z, 0
2023-10-09T02:18:00.426Z, 0
2023-10-09T02:20:00.209Z, 0
2023-10-09T02:22:00.141Z, 0
2023-10-09T02:24:00.188Z, 0
2023-10-09T02:26:00.099Z, 0
2023-10-09T02:28:00.127Z, 0
2023-10-09T02:30:00.267Z, 0
2023-10-09T02:32:00.094Z, 0
2023-10-09T02:34:00.095Z, 0
2023-10-09T02:36:00.166Z, 0
2023-10-09T02:38:00.100Z, 0
2023-10-09T02:40:00.139Z, 0
2023-10-09T02:42:00.152Z, 0
2023-10-09T02:44:00.147Z, 0
2023-10-09T02:46:00.110Z, 0
2023-10-09T02:48:00.285Z, 0
2023-10-09T02:50:00.156Z, 0
2023-10-09T02:52:00.094Z, 0
2023-10-09T02:54:00.171Z, 0
2023-10-09T02:56:00.116Z, 0
2023-10-09T02:58:00.077Z, 0
2023-10-09T03:00:00.180Z, 0
2023-10-09T03:02:00.085Z, 0
2023-10-09T03:04:00.201Z, 0
2023-10-09T03:06:00.174Z, 0
2023-10-09T03:08:00.105Z, 0
2023-10-09T03:10:00.123Z, 0
2023-10-09T03:12:00.134Z, 0
2023-10-09T03:14:00.149Z, 0
2023-10-09T03:16:00.110Z, 0
2023-10-09T03:18:00.297Z, 0
2023-10-09T03:20:00.158Z, 0
2023-10-09T03:22:00.120Z, 0
2023-10-09T03:24:00.194Z, 0
2023-10-09T03:26:14.863Z, 0
2023-10-09T03:28:00.171Z, 0
2023-10-09T03:30:00.234Z, 0
2023-10-09T03:32:00.182Z, 0
2023-10-09T03:34:00.100Z, 0
2023-10-09T03:36:00.188Z, 0
2023-10-09T03:38:00.194Z, 0
2023-10-09T03:40:00.244Z, 0
2023-10-09T03:42:00.168Z, 0
2023-10-09T03:44:00.096Z, 0
2023-10-09T03:46:00.115Z, 0
2023-10-09T03:48:00.298Z, 0
2023-10-09T03:50:00.140Z, 0
2023-10-09T03:52:00.164Z, 0
2023-10-09T03:54:00.238Z, 0
2023-10-09T03:56:00.105Z, 0
2023-10-09T03:58:00.103Z, 0
2023-10-09T04:00:00.241Z, 0
2023-10-09T04:02:00.101Z, 0
2023-10-09T04:04:00.265Z, 0
2023-10-09T04:06:00.149Z, 0
2023-10-09T04:08:00.122Z, 0
2023-10-09T04:10:00.116Z, 0
2023-10-09T04:12:00.132Z, 0
2023-10-09T04:14:00.100Z, 0
2023-10-09T04:16:00.116Z, 0
2023-10-09T04:18:00.209Z, 0
2023-10-09T04:20:00.148Z, 0
2023-10-09T04:22:00.092Z, 0
2023-10-09T04:24:00.421Z, 0
2023-10-09T04:26:00.108Z, 0
2023-10-09T04:28:00.100Z, 0
2023-10-09T04:30:00.181Z, 0
2023-10-09T04:32:00.111Z, 0
2023-10-09T04:34:00.108Z, 0
2023-10-09T04:36:00.142Z, 0
2023-10-09T04:38:00.101Z, 0
2023-10-09T04:40:00.159Z, 0
2023-10-09T04:42:00.202Z, 0
2023-10-09T04:44:00.117Z, 0
2023-10-09T04:46:00.119Z, 0
2023-10-09T04:48:00.305Z, 0
2023-10-09T04:50:00.121Z, 0
2023-10-09T04:52:00.107Z, 0
2023-10-09T04:54:00.155Z, 0
2023-10-09T04:56:00.099Z, 0
2023-10-09T04:58:01.992Z, 0
2023-10-09T05:00:00.288Z, 0
2023-10-09T05:02:00.371Z, 0
2023-10-09T05:04:00.216Z, 0
2023-10-09T05:06:00.285Z, 0
2023-10-09T05:08:00.083Z, 0
2023-10-09T05:10:00.135Z, 0
2023-10-09T05:12:00.155Z, 0
2023-10-09T05:14:00.113Z, 0
2023-10-09T05:16:00.162Z, 0
2023-10-09T05:18:00.208Z, 0
2023-10-09T05:20:00.107Z, 0
2023-10-09T05:22:00.077Z, 0
2023-10-09T05:24:00.161Z, 0
2023-10-09T05:26:00.424Z, 0
2023-10-09T05:28:00.082Z, 0
2023-10-09T05:30:00.232Z, 0
2023-10-09T05:32:00.172Z, 0.01
2023-10-09T05:34:00.213Z, 0.01
2023-10-09T05:36:00.144Z, 0.01
2023-10-09T05:38:00.093Z, 0.01
2023-10-09T05:40:00.135Z, 0.01
2023-10-09T05:42:00.116Z, 0.01
2023-10-09T05:44:00.098Z, 0.02
2023-10-09T05:46:00.252Z, 0.02
2023-10-09T05:48:00.153Z, 0.03
2023-10-09T05:50:00.133Z, 0.03
2023-10-09T05:52:00.082Z, 0.04
2023-10-09T05:54:00.109Z, 0.04
2023-10-09T05:56:00.087Z, 0.05
2023-10-09T05:58:00.091Z, 0.05
2023-10-09T06:00:00.233Z, 0.05
2023-10-09T06:02:00.185Z, 0.05
2023-10-09T06:04:00.320Z, 0.06
2023-10-09T06:06:00.110Z, 0.07
2023-10-09T06:08:00.174Z, 0.08
2023-10-09T06:10:00.167Z, 0.09
2023-10-09T06:12:00.180Z, 0.1
2023-10-09T06:14:00.088Z, 0.11
2023-10-09T06:16:00.202Z, 0.11
2023-10-09T06:18:00.135Z, 0.12
2023-10-09T06:20:00.290Z, 0.12
2023-10-09T06:22:00.119Z, 0.13
2023-10-09T06:24:00.135Z, 0.14
2023-10-09T06:26:00.113Z, 0.14
2023-10-09T06:28:00.092Z, 0.13
2023-10-09T06:30:00.171Z, 0.13
2023-10-09T06:32:00.301Z, 0.12
2023-10-09T06:34:00.195Z, 0.13
2023-10-09T06:36:00.107Z, 0.14
2023-10-09T06:38:00.369Z, 0.15
2023-10-09T06:40:00.140Z, 0.15
2023-10-09T06:42:00.102Z, 0.14
2023-10-09T06:44:00.109Z, 0.12
2023-10-09T06:46:00.178Z, 0.12
2023-10-09T06:48:00.164Z, 0.13
2023-10-09T06:50:00.142Z, 0.14
2023-10-09T06:52:00.079Z, 0.17
2023-10-09T06:54:00.136Z, 0.2
2023-10-09T06:56:00.115Z, 0.22
2023-10-09T06:58:00.094Z, 0.21
2023-10-09T07:00:00.138Z, 0.21
2023-10-09T07:02:00.079Z, 0.23
2023-10-09T07:04:00.220Z, 0.26
2023-10-09T07:06:00.141Z, 0.27
2023-10-09T07:08:00.103Z, 0.27
2023-10-09T07:10:00.131Z, 0.25
2023-10-09T07:12:00.196Z, 0.23
2023-10-09T07:14:00.083Z, 0.23
2023-10-09T07:16:00.166Z, 0.25
2023-10-09T07:18:00.127Z, 0.29
2023-10-09T07:20:00.180Z, 0.33
2023-10-09T07:22:00.101Z, 0.35
2023-10-09T07:24:00.135Z, 0.37
2023-10-09T07:26:00.143Z, 0.41
2023-10-09T07:28:00.108Z, 0.45
2023-10-09T07:30:00.144Z, 0.5
2023-10-09T07:32:00.087Z, 0.55
2023-10-09T07:34:00.090Z, 0.56
2023-10-09T07:36:00.112Z, 0.54
2023-10-09T07:38:00.097Z, 0.53
2023-10-09T07:40:00.088Z, 0.56
2023-10-09T07:42:00.198Z, 0.57
2023-10-09T07:44:00.115Z, 0.56
2023-10-09T07:46:00.308Z, 0.56
2023-10-09T07:48:00.135Z, 0.54
2023-10-09T07:50:00.204Z, 0.52
2023-10-09T07:52:00.149Z, 0.49
2023-10-09T07:54:00.114Z, 0.42
2023-10-09T07:56:00.097Z, 0.36
2023-10-09T07:58:00.085Z, 0.31
2023-10-09T08:00:00.167Z, 0.26
2023-10-09T08:02:00.139Z, 0.24
2023-10-09T08:04:00.172Z, 0.24
2023-10-09T08:06:00.381Z, 0.28
2023-10-09T08:08:04.700Z, 0.34
2023-10-09T08:10:00.140Z, 0.43
2023-10-09T08:12:00.098Z, 0.5
2023-10-09T08:14:00.141Z, 0.54
2023-10-09T08:16:00.230Z, 0.57
2023-10-09T08:18:00.257Z, 0.58
2023-10-09T08:20:00.131Z, 0.55
2023-10-09T08:22:00.094Z, 0.52
2023-10-09T08:24:00.133Z, 0.51
2023-10-09T08:26:00.109Z, 0.48
2023-10-09T08:28:00.075Z, 0.48
2023-10-09T08:30:00.105Z, 0.52
2023-10-09T08:32:00.092Z, 0.66
2023-10-09T08:36:00.230Z, 1.01
2023-10-09T08:38:00.133Z, 1.12
2023-10-09T08:40:00.111Z, 1.18
2023-10-09T08:42:00.116Z, 1.14
2023-10-09T08:44:00.159Z, 1.08
2023-10-09T08:46:00.167Z, 1.01
2023-10-09T08:48:00.201Z, 0.92
2023-10-09T08:50:00.240Z, 0.73
2023-10-09T08:52:00.089Z, 0.55
2023-10-09T08:54:00.199Z, 0.46
2023-10-09T08:56:00.163Z, 0.51
2023-10-09T08:58:00.208Z, 0.59
2023-10-09T09:00:00.193Z, 0.64
2023-10-09T09:02:00.148Z, 0.66
2023-10-09T09:04:00.170Z, 0.7
2023-10-09T09:06:00.099Z, 0.75
2023-10-09T09:08:00.235Z, 0.82
2023-10-09T09:10:00.114Z, 0.82
2023-10-09T09:12:00.106Z, 0.82
2023-10-09T09:14:00.275Z, 0.94
2023-10-09T09:16:00.110Z, 1.03
2023-10-09T09:18:00.194Z, 1.06
2023-10-09T09:20:00.259Z, 1.15
2023-10-09T09:22:00.077Z, 1.16
2023-10-09T09:24:00.166Z, 1.03
2023-10-09T09:26:00.196Z, 0.99
2023-10-09T09:28:00.091Z, 0.97
2023-10-09T09:30:00.153Z, 0.96
2023-10-09T09:32:00.140Z, 0.99
2023-10-09T09:34:00.123Z, 0.92
2023-10-09T09:36:00.154Z, 0.91
2023-10-09T09:38:00.114Z, 0.94
2023-10-09T09:40:00.104Z, 0.91
2023-10-09T09:42:00.117Z, 0.88
2023-10-09T09:44:00.143Z, 0.8
2023-10-09T09:46:02.431Z, 0.8
2023-10-09T09:48:00.193Z, 0.91
2023-10-09T09:50:00.145Z, 1.04
2023-10-09T09:52:00.090Z, 1.17
2023-10-09T09:54:00.146Z, 1.1
2023-10-09T09:56:00.212Z, 0.93
2023-10-09T09:58:00.115Z, 0.79
2023-10-09T10:00:00.174Z, 0.72
2023-10-09T10:02:00.165Z, 0.75
2023-10-09T10:04:00.084Z, 0.69
2023-10-09T10:06:00.113Z, 0.73
2023-10-09T10:08:00.199Z, 0.87
2023-10-09T10:10:00.145Z, 1.04
2023-10-09T10:12:00.111Z, 1.22
2023-10-09T10:14:00.205Z, 1.38
2023-10-09T10:16:00.110Z, 1.55
2023-10-09T10:18:00.397Z, 1.69
2023-10-09T10:20:00.146Z, 1.81
2023-10-09T10:22:00.101Z, 1.56
2023-10-09T10:24:00.111Z, 1.56
2023-10-09T10:26:00.133Z, 1.72
2023-10-09T10:28:00.101Z, 1.66
2023-10-09T10:30:00.211Z, 1.82
2023-10-09T10:32:00.114Z, 1.94
2023-10-09T10:34:00.109Z, 1.87
2023-10-09T10:36:00.099Z, 1.65
2023-10-09T10:38:00.143Z, 1.47
2023-10-09T10:40:00.136Z, 1.51
2023-10-09T10:42:00.103Z, 1.64
2023-10-09T10:44:00.161Z, 1.71
2023-10-09T10:46:00.159Z, 1.67
2023-10-09T10:48:00.204Z, 1.75
2023-10-09T10:50:00.626Z, 1.84
2023-10-09T10:52:00.079Z, 1.86
2023-10-09T10:54:00.286Z, 1.91
2023-10-09T10:56:00.126Z, 1.89
2023-10-09T10:58:00.075Z, 1.95
2023-10-09T11:00:00.194Z, 1.89
2023-10-09T11:02:00.243Z, 1.8
2023-10-09T11:04:00.475Z, 1.77
2023-10-09T11:06:00.181Z, 1.8
2023-10-09T11:08:00.435Z, 1.88
2023-10-09T11:10:00.996Z, 1.91
2023-10-09T11:12:00.385Z, 1.88
2023-10-09T11:14:00.251Z, 1.86
2023-10-09T11:16:00.191Z, 1.91
2023-10-09T11:18:01.307Z, 1.97
2023-10-09T11:20:00.299Z, 2
2023-10-09T11:22:00.164Z, 2.01
2023-10-09T11:24:00.140Z, 1.99
2023-10-09T11:26:00.220Z, 1.95
2023-10-09T11:28:00.085Z, 1.95
2023-10-09T11:30:00.117Z, 1.93
2023-10-09T11:32:00.136Z, 1.95
2023-10-09T11:34:00.284Z, 1.98
2023-10-09T11:36:00.207Z, 2.01
2023-10-09T11:38:00.149Z, 2.04
2023-10-09T11:40:00.104Z, 2.04
2023-10-09T11:42:00.143Z, 1.96
2023-10-09T11:44:00.185Z, 1.93
2023-10-09T11:46:00.164Z, 1.91
2023-10-09T11:48:00.493Z, 1.89
2023-10-09T11:50:00.419Z, 1.84
2023-10-09T11:52:00.547Z, 1.8
2023-10-09T11:54:00.406Z, 1.77
2023-10-09T11:56:00.179Z, 1.76
2023-10-09T11:58:00.129Z, 1.74
2023-10-09T12:00:00.242Z, 1.71
2023-10-09T12:02:00.163Z, 1.68
2023-10-09T12:04:00.243Z, 1.67
2023-10-09T12:06:00.109Z, 1.65
2023-10-09T12:08:00.129Z, 1.63
2023-10-09T12:10:00.125Z, 1.61
2023-10-09T12:12:04.260Z, 1.62
2023-10-09T12:14:00.115Z, 1.61
2023-10-09T12:16:00.098Z, 1.6
2023-10-09T12:18:00.113Z, 1.59
2023-10-09T12:20:00.233Z, 1.59
2023-10-09T12:22:00.103Z, 1.6
2023-10-09T12:24:02.712Z, 1.6
2023-10-09T12:26:00.195Z, 1.6
2023-10-09T12:28:00.094Z, 1.58
2023-10-09T12:30:00.138Z, 1.55
2023-10-09T12:32:00.103Z, 1.52
2023-10-09T12:34:00.240Z, 1.5
2023-10-09T12:36:00.211Z, 1.5
2023-10-09T12:38:00.148Z, 1.49
2023-10-09T12:40:00.136Z, 1.5
2023-10-09T12:42:00.124Z, 1.5
2023-10-09T12:44:00.206Z, 1.5
2023-10-09T12:46:00.094Z, 1.5
2023-10-09T12:48:00.642Z, 1.49
2023-10-09T12:50:00.553Z, 1.49
2023-10-09T12:52:00.083Z, 1.48
2023-10-09T12:54:00.128Z, 1.47
2023-10-09T12:56:00.171Z, 1.46
2023-10-09T12:58:00.111Z, 1.44
2023-10-09T13:00:00.142Z, 1.43
2023-10-09T13:02:00.256Z, 1.4
2023-10-09T13:04:00.153Z, 1.36
2023-10-09T13:06:00.119Z, 1.33
2023-10-09T13:08:00.197Z, 1.31
2023-10-09T13:10:00.184Z, 1.31
2023-10-09T13:12:00.119Z, 1.3
2023-10-09T13:14:00.110Z, 1.3
2023-10-09T13:16:00.109Z, 1.3
2023-10-09T13:18:00.187Z, 1.29
2023-10-09T13:20:00.227Z, 1.29
2023-10-09T13:22:00.093Z, 1.29
2023-10-09T13:24:00.121Z, 1.29
2023-10-09T13:26:00.189Z, 1.26
2023-10-09T13:28:00.103Z, 1.25
2023-10-09T13:30:00.181Z, 1.22
2023-10-09T13:32:00.347Z, 1.21
2023-10-09T13:34:00.174Z, 1.2
2023-10-09T13:36:00.133Z, 1.17
2023-10-09T13:38:00.137Z, 1.13
2023-10-09T13:40:00.120Z, 1.09
2023-10-09T13:42:01.147Z, 1.03
2023-10-09T13:44:00.169Z, 0.99
2023-10-09T13:46:00.125Z, 0.96
2023-10-09T13:48:00.160Z, 0.96
2023-10-09T13:50:00.162Z, 0.98
2023-10-09T13:52:00.139Z, 0.97
2023-10-09T13:54:00.108Z, 0.95
2023-10-09T13:56:00.272Z, 0.95
2023-10-09T13:58:00.145Z, 0.95
2023-10-09T14:00:00.205Z, 0.94
2023-10-09T14:02:00.116Z, 0.93
2023-10-09T14:04:00.477Z, 0.92
2023-10-09T14:06:00.144Z, 0.89
2023-10-09T14:08:00.128Z, 0.82
2023-10-09T14:10:00.117Z, 0.76
2023-10-09T14:12:00.103Z, 0.74
2023-10-09T14:14:11.407Z, 0.78
2023-10-09T14:16:00.152Z, 0.82
2023-10-09T14:18:00.126Z, 0.83
2023-10-09T14:20:00.183Z, 0.82
2023-10-09T14:22:00.111Z, 0.8
2023-10-09T14:24:00.124Z, 0.77
2023-10-09T14:26:00.129Z, 0.73
2023-10-09T14:28:00.078Z, 0.71
2023-10-09T14:30:00.226Z, 0.73
2023-10-09T14:32:00.187Z, 0.75
2023-10-09T14:34:00.110Z, 0.76
2023-10-09T14:36:00.097Z, 0.76
2023-10-09T14:38:00.138Z, 0.74
2023-10-09T14:40:00.368Z, 0.73
2023-10-09T14:42:00.107Z, 0.72
2023-10-09T14:44:00.265Z, 0.72
2023-10-09T14:46:00.187Z, 0.72
2023-10-09T14:48:00.237Z, 0.72
2023-10-09T14:50:00.245Z, 0.72
2023-10-09T14:52:00.110Z, 0.72
2023-10-09T14:54:00.110Z, 0.72
2023-10-09T14:56:00.174Z, 0.72
2023-10-09T14:58:00.603Z, 0.7
2023-10-09T15:00:00.130Z, 0.69
2023-10-09T15:02:00.161Z, 0.68
2023-10-09T15:04:00.147Z, 0.67
2023-10-09T15:06:00.114Z, 0.66
2023-10-09T15:08:00.106Z, 0.67
2023-10-09T15:10:00.145Z, 0.67
2023-10-09T15:12:00.113Z, 0.67
2023-10-09T15:14:00.175Z, 0.67
2023-10-09T15:16:00.205Z, 0.66
2023-10-09T15:18:00.191Z, 0.63
2023-10-09T15:20:00.165Z, 0.6
2023-10-09T15:22:00.245Z, 0.59
2023-10-09T15:24:00.110Z, 0.59
2023-10-09T15:26:00.157Z, 0.6
2023-10-09T15:28:00.116Z, 0.6
2023-10-09T15:30:00.145Z, 0.58
2023-10-09T15:32:00.168Z, 0.55
2023-10-09T15:34:00.127Z, 0.54
2023-10-09T15:36:00.111Z, 0.53
2023-10-09T15:38:00.132Z, 0.51
2023-10-09T15:40:00.120Z, 0.49
2023-10-09T15:42:00.140Z, 0.46
2023-10-09T15:44:00.147Z, 0.44
2023-10-09T15:46:00.198Z, 0.44
2023-10-09T15:48:00.149Z, 0.42
2023-10-09T15:50:00.210Z, 0.39
2023-10-09T15:52:00.122Z, 0.35
2023-10-09T15:54:00.175Z, 0.3
2023-10-09T15:56:00.120Z, 0.27
2023-10-09T15:58:00.132Z, 0.26
2023-10-09T16:00:00.161Z, 0.25
2023-10-09T16:02:00.153Z, 0.25
2023-10-09T16:04:00.168Z, 0.25
2023-10-09T16:06:00.312Z, 0.25
2023-10-09T16:08:00.089Z, 0.24
2023-10-09T16:10:00.145Z, 0.22
2023-10-09T16:12:00.157Z, 0.21
2023-10-09T16:14:00.123Z, 0.19
2023-10-09T16:16:00.150Z, 0.18
2023-10-09T16:18:00.459Z, 0.16
2023-10-09T16:20:00.142Z, 0.15
2023-10-09T16:22:00.118Z, 0.14
2023-10-09T16:24:00.164Z, 0.12
2023-10-09T16:28:00.192Z, 0.1
2023-10-09T16:30:00.235Z, 0.09
2023-10-09T16:32:00.222Z, 0.08
2023-10-09T16:34:00.093Z, 0.07
2023-10-09T16:36:00.127Z, 0.06
2023-10-09T16:38:00.119Z, 0.06
2023-10-09T16:40:00.102Z, 0.05
2023-10-09T16:42:00.108Z, 0.04
2023-10-09T16:44:00.112Z, 0.04
2023-10-09T16:46:00.208Z, 0.03
2023-10-09T16:48:00.455Z, 0.03
2023-10-09T16:50:00.172Z, 0.02
2023-10-09T16:52:00.106Z, 0.02
2023-10-09T16:54:00.214Z, 0.02
2023-10-09T16:56:00.136Z, 0.02
2023-10-09T16:58:00.083Z, 0.01
2023-10-09T17:00:00.147Z, 0.01
2023-10-09T17:02:00.220Z, 0.01
2023-10-09T17:04:00.128Z, 0.01
2023-10-09T17:06:00.100Z, 0
2023-10-09T17:08:00.157Z, 0
2023-10-09T17:10:00.130Z, 0
2023-10-09T17:12:00.107Z, 0
2023-10-09T17:14:00.136Z, 0
2023-10-09T17:16:00.152Z, 0
2023-10-09T17:18:00.299Z, 0
2023-10-09T17:20:00.151Z, 0
2023-10-09T17:22:00.121Z, 0
2023-10-09T17:24:00.137Z, 0
2023-10-09T17:26:00.208Z, 0
2023-10-09T17:28:00.126Z, 0
2023-10-09T17:30:00.144Z, 0
2023-10-09T17:32:00.124Z, 0
2023-10-09T17:34:00.082Z, 0
2023-10-09T17:36:00.099Z, 0
2023-10-09T17:38:00.208Z, 0
2023-10-09T17:40:00.113Z, 0
2023-10-09T17:42:00.161Z, 0
2023-10-09T17:44:00.124Z, 0
2023-10-09T17:46:00.068Z, 0
2023-10-09T17:48:01.556Z, 0
2023-10-09T17:50:00.211Z, 0
2023-10-09T17:52:00.080Z, 0
2023-10-09T17:54:00.084Z, 0
2023-10-09T17:56:00.305Z, 0
2023-10-09T17:58:00.069Z, 0
2023-10-09T18:00:00.107Z, 0
2023-10-09T18:02:00.260Z, 0
2023-10-09T18:04:00.435Z, 0
2023-10-09T18:06:00.102Z, 0
2023-10-09T18:08:00.141Z, 0
2023-10-09T18:10:00.232Z, 0
2023-10-09T18:12:00.104Z, 0
2023-10-09T18:14:00.144Z, 0
2023-10-09T18:16:00.332Z, 0
2023-10-09T18:18:00.228Z, 0
2023-10-09T18:20:00.112Z, 0
2023-10-09T18:22:00.089Z, 0
2023-10-09T18:24:00.103Z, 0
2023-10-09T18:26:00.218Z, 0
2023-10-09T18:28:00.101Z, 0
2023-10-09T18:30:00.171Z, 0
2023-10-09T18:32:00.127Z, 0
2023-10-09T18:34:00.093Z, 0
2023-10-09T18:36:00.234Z, 0
2023-10-09T18:38:00.198Z, 0
2023-10-09T18:40:00.290Z, 0
2023-10-09T18:42:00.117Z, 0
2023-10-09T18:44:00.125Z, 0
2023-10-09T18:46:00.238Z, 0
2023-10-09T18:48:00.312Z, 0
2023-10-09T18:50:00.188Z, 0
2023-10-09T18:52:00.140Z, 0
2023-10-09T18:54:00.111Z, 0
2023-10-09T18:56:00.216Z, 0
2023-10-09T18:58:00.110Z, 0
2023-10-09T19:00:00.182Z, 0
2023-10-09T19:02:00.156Z, 0
2023-10-09T19:04:00.087Z, 0
2023-10-09T19:06:00.117Z, 0
2023-10-09T19:08:00.127Z, 0
2023-10-09T19:10:00.127Z, 0
2023-10-09T19:12:00.178Z, 0
2023-10-09T19:14:00.121Z, 0
2023-10-09T19:16:00.416Z, 0
2023-10-09T19:18:00.276Z, 0
2023-10-09T19:20:00.156Z, 0
2023-10-09T19:22:00.088Z, 0
2023-10-09T19:24:00.111Z, 0
2023-10-09T19:26:00.241Z, 0
2023-10-09T19:28:00.101Z, 0
2023-10-09T19:30:00.193Z, 0
2023-10-09T19:32:00.122Z, 0
2023-10-09T19:34:00.116Z, 0
2023-10-09T19:36:00.193Z, 0
2023-10-09T19:38:00.177Z, 0
2023-10-09T19:40:00.141Z, 0
2023-10-09T19:42:00.136Z, 0
2023-10-09T19:44:00.202Z, 0
2023-10-09T19:46:00.334Z, 0
2023-10-09T19:48:00.210Z, 0
2023-10-09T19:50:00.246Z, 0
2023-10-09T19:52:00.133Z, 0
2023-10-09T19:54:00.124Z, 0
2023-10-09T19:56:00.451Z, 0
2023-10-09T19:58:00.084Z, 0
2023-10-09T20:00:00.148Z, 0
2023-10-09T20:02:00.206Z, 0
2023-10-09T20:04:00.116Z, 0
2023-10-09T20:06:00.433Z, 0
2023-10-09T20:08:00.258Z, 0
2023-10-09T20:10:00.229Z, 0
2023-10-09T20:12:00.129Z, 0
2023-10-09T20:14:00.114Z, 0
2023-10-09T20:16:00.374Z, 0
2023-10-09T20:18:00.200Z, 0
2023-10-09T20:20:00.634Z, 0
2023-10-09T20:22:00.115Z, 0
2023-10-09T20:24:00.129Z, 0
2023-10-09T20:26:00.168Z, 0
2023-10-09T20:28:00.072Z, 0
2023-10-09T20:30:00.157Z, 0
2023-10-09T20:32:00.172Z, 0
2023-10-09T20:34:00.158Z, 0
2023-10-09T20:36:00.446Z, 0
2023-10-09T20:38:00.371Z, 0
2023-10-09T20:40:00.730Z, 0
2023-10-09T20:42:00.179Z, 0
2023-10-09T20:44:00.181Z, 0
2023-10-09T20:46:00.432Z, 0
2023-10-09T20:48:00.267Z, 0
2023-10-09T20:50:00.224Z, 0
2023-10-09T20:52:00.119Z, 0
2023-10-09T20:54:00.111Z, 0
2023-10-09T20:56:00.161Z, 0
2023-10-09T20:58:00.173Z, 0
2023-10-09T21:00:00.162Z, 0
2023-10-09T21:02:00.245Z, 0
2023-10-09T21:04:00.203Z, 0
2023-10-09T21:06:00.194Z, 0
2023-10-09T21:08:00.173Z, 0
2023-10-09T21:10:00.129Z, 0
2023-10-09T21:12:00.144Z, 0
2023-10-09T21:14:00.141Z, 0
2023-10-09T21:16:00.154Z, 0
2023-10-09T21:18:00.397Z, 0
2023-10-09T21:20:00.186Z, 0
2023-10-09T21:22:00.084Z, 0
2023-10-09T21:24:00.154Z, 0
2023-10-09T21:26:00.121Z, 0
2023-10-09T21:28:00.088Z, 0
2023-10-09T21:30:00.125Z, 0
2023-10-09T21:32:00.198Z, 0
2023-10-09T21:34:00.329Z, 0
2023-10-09T21:36:00.132Z, 0
2023-10-09T21:38:00.153Z, 0
2023-10-09T21:40:00.113Z, 0
2023-10-09T21:42:00.137Z, 0
2023-10-09T21:44:00.126Z, 0
2023-10-09T21:46:00.165Z, 0
2023-10-09T21:48:00.164Z, 0
2023-10-09T21:50:00.210Z, 0
2023-10-09T21:52:00.088Z, 0
2023-10-09T21:54:00.113Z, 0
2023-10-09T21:56:00.161Z, 0
2023-10-09T21:58:00.113Z, 0
2023-10-09T22:00:00.128Z, 0
2023-10-09T22:02:00.317Z, 0
2023-10-09T22:04:00.209Z, 0
2023-10-09T22:06:00.228Z, 0
2023-10-09T22:08:00.171Z, 0
2023-10-09T22:10:00.128Z, 0
2023-10-09T22:12:00.128Z, 0
2023-10-09T22:14:00.141Z, 0
2023-10-09T22:16:00.100Z, 0
2023-10-09T22:18:00.396Z, 0
2023-10-09T22:20:00.295Z, 0
2023-10-09T22:22:00.249Z, 0
2023-10-09T22:24:00.143Z, 0
2023-10-09T22:26:00.137Z, 0
2023-10-09T22:28:00.111Z, 0
2023-10-09T22:30:00.178Z, 0
2023-10-09T22:32:00.223Z, 0
2023-10-09T22:34:00.101Z, 0
2023-10-09T22:36:00.110Z, 0
2023-10-09T22:38:00.137Z, 0
2023-10-09T22:40:00.183Z, 0
2023-10-09T22:42:00.116Z, 0
2023-10-09T22:44:00.133Z, 0
2023-10-09T22:46:00.119Z, 0
2023-10-09T22:48:00.168Z, 0
2023-10-09T22:50:00.123Z, 0
2023-10-09T22:52:00.083Z, 0
2023-10-09T22:54:00.129Z, 0
2023-10-09T22:56:00.161Z, 0
2023-10-09T22:58:00.107Z, 0
2023-10-09T23:00:00.182Z, 0
2023-10-09T23:02:00.271Z, 0
2023-10-09T23:04:00.218Z, 0
2023-10-09T23:06:00.238Z, 0
2023-10-09T23:08:00.513Z, 0
2023-10-09T23:10:00.101Z, 0
2023-10-09T23:12:00.157Z, 0
2023-10-09T23:14:00.159Z, 0
2023-10-09T23:16:00.137Z, 0
2023-10-09T23:18:00.147Z, 0
2023-10-09T23:20:00.184Z, 0
2023-10-09T23:22:00.131Z, 0
2023-10-09T23:24:00.105Z, 0
2023-10-09T23:26:00.160Z, 0
2023-10-09T23:28:00.487Z, 0
2023-10-09T23:30:00.133Z, 0
2023-10-09T23:32:00.234Z, 0
2023-10-09T23:34:00.084Z, 0
2023-10-09T23:36:00.107Z, 0
2023-10-09T23:38:00.150Z, 0
2023-10-09T23:40:00.105Z, 0
2023-10-09T23:42:00.434Z, 0
2023-10-09T23:44:00.152Z, 0
2023-10-09T23:46:00.126Z, 0
2023-10-09T23:48:00.186Z, 0
2023-10-09T23:50:00.183Z, 0
2023-10-09T23:52:00.108Z, 0
2023-10-09T23:54:00.106Z, 0
2023-10-09T23:56:00.115Z, 0
2023-10-09T23:58:00.130Z, 0
